createdAt,value
2022-07-26T03:55:34.344Z,10.1
2022-07-26T03:57:48.774Z,14.6
2022-07-26T04:00:03.298Z,14.6
2022-07-26T04:02:17.722Z,14.6
2022-07-26T04:04:32.055Z,12.7
2022-07-26T04:06:47.392Z,10.9
2022-07-26T04:09:01.965Z,9.6
2022-07-26T04:11:18.269Z,11.7
2022-07-26T04:13:32.726Z,14.5
2022-07-26T04:15:47.161Z,9.9
2022-07-26T04:18:01.580Z,11.8
2022-07-26T04:20:16.090Z,14
2022-07-26T04:22:30.404Z,15.6
2022-07-26T04:24:44.769Z,16.799999
2022-07-26T04:26:59.131Z,18.9
2022-07-26T04:29:13.576Z,13
2022-07-26T04:31:29.440Z,12.5
2022-07-26T04:33:45.836Z,13.1
2022-07-26T04:36:00.239Z,15.3
2022-07-26T04:38:14.605Z,15.2
2022-07-26T04:40:29.978Z,12.2
2022-07-26T04:42:44.342Z,12
2022-07-26T04:44:58.739Z,11.4
2022-07-26T04:47:15.156Z,10.4
2022-07-26T04:49:29.588Z,17.299999
2022-07-26T04:51:44.016Z,15.2
2022-07-26T04:53:58.378Z,16.5
2022-07-26T04:56:13.179Z,10.1
2022-07-26T04:58:27.579Z,13.6
2022-07-26T05:01:03.104Z,14.2
2022-07-26T05:02:59.364Z,13.2
2022-07-26T05:05:13.902Z,13.7
2022-07-26T05:07:29.299Z,14.5
2022-07-26T05:09:43.720Z,12.3
2022-07-26T05:11:58.076Z,16.700001
2022-07-26T05:14:12.460Z,15.1
2022-07-26T05:16:26.863Z,14.1
2022-07-26T05:18:44.002Z,16.5
2022-07-26T05:20:59.579Z,12.6
2022-07-26T05:23:13.925Z,16
2022-07-26T05:25:28.476Z,17.200001
2022-07-26T05:27:42.904Z,14
2022-07-26T05:29:58.230Z,14.7
2022-07-26T05:32:12.641Z,15.9
2022-07-26T05:34:27.033Z,15.8
2022-07-26T05:36:41.460Z,15.6
2022-07-26T05:38:55.778Z,14.5
2022-07-26T05:41:10.167Z,19.700001
2022-07-26T05:43:24.648Z,17.5
2022-07-26T05:45:39.065Z,22.5
2022-07-26T05:47:53.424Z,18.799999
2022-07-26T05:50:07.780Z,19.6
2022-07-26T05:52:22.368Z,19.6
2022-07-26T05:54:36.834Z,18.799999
2022-07-26T05:56:51.230Z,19.1
2022-07-26T05:59:05.591Z,18.1
2022-07-26T06:01:20.049Z,21.4
2022-07-26T06:03:37.718Z,24.9
2022-07-26T06:05:52.092Z,16.700001
2022-07-26T06:08:07.490Z,23.5
2022-07-26T06:10:21.832Z,22.700001
2022-07-26T06:12:36.222Z,24.200001
2022-07-26T06:14:50.623Z,17.799999
2022-07-26T06:17:05.248Z,24.5
2022-07-26T06:19:19.625Z,23.6
2022-07-26T06:21:33.998Z,20.799999
2022-07-26T06:23:48.366Z,22
2022-07-26T06:26:02.760Z,20.799999
2022-07-26T06:28:17.128Z,26.299999
2022-07-26T06:30:31.606Z,22.5
2022-07-26T06:32:45.978Z,23.700001
2022-07-26T06:35:00.325Z,21.799999
2022-07-26T06:37:13.697Z,25.200001
2022-07-26T06:39:28.168Z,25.200001
2022-07-26T06:41:42.604Z,20.700001
2022-07-26T06:43:58.003Z,25
2022-07-26T06:46:13.450Z,20.5
2022-07-26T06:48:27.736Z,22.200001
2022-07-26T06:50:43.271Z,24.9
2022-07-26T06:52:58.688Z,27.700001
2022-07-26T06:55:13.069Z,22.5
2022-07-26T06:57:27.518Z,23.299999
2022-07-26T06:59:41.885Z,22.200001
2022-07-26T07:01:59.853Z,27
2022-07-26T07:04:13.555Z,20.1
2022-07-26T07:06:27.964Z,20.6
2022-07-26T07:08:43.320Z,22.200001
2022-07-26T07:10:58.716Z,25.6
2022-07-26T07:13:14.110Z,21.6
2022-07-26T07:15:28.483Z,22.5
2022-07-26T07:17:43.883Z,22.1
2022-07-26T07:19:58.249Z,22.6
2022-07-26T07:22:12.895Z,22.4
2022-07-26T07:24:27.017Z,21.6
2022-07-26T07:26:42.451Z,23.299999
2022-07-26T07:28:57.856Z,26.5
2022-07-26T07:31:12.261Z,25.4
2022-07-26T07:33:26.555Z,22
2022-07-26T07:35:43.964Z,27.799999
2022-07-26T07:37:59.330Z,26
2022-07-26T07:40:13.702Z,25.700001
2022-07-26T07:42:28.098Z,25.4
2022-07-26T07:44:42.447Z,26.799999
2022-07-26T07:46:56.828Z,26
2022-07-26T07:49:11.691Z,24.1
2022-07-26T07:51:26.608Z,24.4
2022-07-26T07:53:42.023Z,24.799999
2022-07-26T07:55:57.430Z,25.299999
2022-07-26T07:58:11.793Z,26.799999
2022-07-26T08:00:28.164Z,24.799999
2022-07-26T08:02:42.665Z,28.9
2022-07-26T08:05:01.698Z,23.1
2022-07-26T08:07:15.522Z,27.4
2022-07-26T08:09:29.819Z,27.1
2022-07-26T08:11:46.207Z,23.700001
2022-07-26T08:14:02.534Z,25.700001
2022-07-26T08:16:16.934Z,23.299999
2022-07-26T08:18:32.224Z,27.9
2022-07-26T08:20:46.604Z,25.200001
2022-07-26T08:23:01.152Z,23.5
2022-07-26T08:25:15.461Z,22.799999
2022-07-26T08:27:29.862Z,25.200001
2022-07-26T08:29:44.257Z,19.5
2022-07-26T08:31:58.647Z,23.1
2022-07-26T08:34:13.103Z,21.299999
2022-07-26T08:36:32.502Z,21.6
2022-07-26T08:38:46.368Z,22.6
2022-07-26T08:41:00.928Z,26
2022-07-26T08:43:15.265Z,22.4
2022-07-26T08:45:29.629Z,22.700001
2022-07-26T08:48:00.996Z,23.6
2022-07-26T08:50:01.314Z,24.799999
2022-07-26T08:52:15.697Z,26.9
2022-07-26T08:54:30.071Z,23.9
2022-07-26T08:56:45.483Z,21.200001
2022-07-26T08:58:59.821Z,21.4
2022-07-26T09:01:14.550Z,23.299999
2022-07-26T09:03:28.947Z,18.799999
2022-07-26T09:05:43.231Z,22.799999
2022-07-26T09:07:57.864Z,20.5
2022-07-26T09:10:12.195Z,17
2022-07-26T09:12:26.663Z,22
2022-07-26T09:14:42.007Z,21.200001
2022-07-26T09:16:56.352Z,18.700001
2022-07-26T09:19:10.957Z,21.299999
2022-07-26T09:21:25.145Z,22.5
2022-07-26T09:23:39.502Z,16.4
2022-07-26T09:25:53.872Z,16.200001
2022-07-26T09:28:08.254Z,17
2022-07-26T09:30:22.589Z,17.4
2022-07-26T09:32:36.968Z,20.299999
2022-07-26T09:34:53.574Z,13.5
2022-07-26T09:37:12.375Z,12.4
2022-07-26T09:39:33.800Z,10
2022-07-26T09:41:42.717Z,13.5
2022-07-26T09:43:57.066Z,16.5
2022-07-26T09:46:11.459Z,13.6
2022-07-26T09:48:25.841Z,9.5
2022-07-26T09:50:42.191Z,13.3
2022-07-26T09:52:56.620Z,13.8
2022-07-26T09:55:11.016Z,12
2022-07-26T09:57:25.364Z,9.5
2022-07-26T09:59:40.111Z,10.6
2022-07-26T10:01:54.545Z,11.1
2022-07-26T10:04:09.100Z,8.8
2022-07-26T10:06:28.605Z,10
2022-07-26T10:08:40.557Z,8.8
2022-07-26T10:10:55.938Z,10.2
2022-07-26T10:13:10.359Z,8.3
2022-07-26T10:15:24.814Z,8.1
2022-07-26T10:17:40.287Z,11.4
2022-07-26T10:19:54.645Z,8.7
2022-07-26T10:22:09.050Z,12.3
2022-07-26T10:24:23.430Z,10.3
2022-07-26T10:26:37.849Z,9.2
2022-07-26T10:28:52.216Z,14.6
2022-07-26T10:31:07.834Z,10.9
2022-07-26T10:33:22.211Z,11
2022-07-26T10:35:36.670Z,11.2
2022-07-26T10:37:50.947Z,12.3
2022-07-26T10:40:05.332Z,13.5
2022-07-26T10:42:19.764Z,11.8
2022-07-26T10:44:34.225Z,14.8
2022-07-26T10:46:48.656Z,14.5
2022-07-26T10:49:03.017Z,15.7
2022-07-26T10:51:17.336Z,15
2022-07-26T10:53:31.768Z,16.700001
2022-07-26T10:55:46.279Z,14.4
2022-07-26T10:58:00.691Z,15.1
2022-07-26T11:00:16.348Z,18.200001
2022-07-26T11:02:30.729Z,16.700001
2022-07-26T11:04:45.123Z,17
2022-07-26T11:06:59.781Z,16.5
2022-07-26T11:09:14.137Z,18.200001
2022-07-26T11:11:28.736Z,14.7
2022-07-26T11:13:43.367Z,14.2
2022-07-26T11:15:57.904Z,14.3
2022-07-26T11:18:12.687Z,17.700001
2022-07-26T11:20:29.906Z,14.7
2022-07-26T11:22:44.272Z,17.299999
2022-07-26T11:24:58.638Z,16.1
2022-07-26T11:27:13.283Z,14.5
2022-07-26T11:29:35.176Z,14.9
2022-07-26T11:31:48.195Z,14.2
2022-07-26T11:34:02.744Z,12.2
2022-07-26T11:36:17.091Z,12.3
2022-07-26T11:38:31.491Z,16.4
2022-07-26T11:40:45.835Z,15.1
2022-07-26T11:43:01.870Z,8.9
2022-07-26T11:45:16.179Z,11.1
2022-07-26T11:47:30.918Z,11.6
2022-07-26T11:49:52.500Z,14.4
2022-07-26T11:52:02.739Z,12.2
2022-07-26T11:54:17.272Z,11.5
2022-07-26T11:56:31.678Z,11.3
2022-07-26T11:58:46.437Z,9
2022-07-26T12:01:00.852Z,10.2
2022-07-26T12:03:16.022Z,11.6
2022-07-26T12:05:30.950Z,11.8
2022-07-26T12:07:46.357Z,10.1
2022-07-26T12:10:01.723Z,11.3
2022-07-26T12:12:16.187Z,12.2
2022-07-26T12:14:31.822Z,11.8
2022-07-26T12:16:46.140Z,12.2
2022-07-26T12:19:00.501Z,10.5
2022-07-26T12:21:14.876Z,12.1
2022-07-26T12:23:29.309Z,6.5
2022-07-26T12:25:49.185Z,10.9
2022-07-26T12:28:01.876Z,4.8
2022-07-26T12:30:16.849Z,5.3
2022-07-26T12:32:31.270Z,5.3
2022-07-26T12:34:45.860Z,5.2
2022-07-26T12:37:01.216Z,5.3
2022-07-26T12:39:15.688Z,6.9
2022-07-26T12:41:30.127Z,4.8
2022-07-26T12:43:49.308Z,4.5
2022-07-26T12:46:02.521Z,5
2022-07-26T12:48:16.896Z,5.7
2022-07-26T12:50:31.245Z,4.7
2022-07-26T12:52:46.858Z,4.9
2022-07-26T12:55:01.497Z,5.4
2022-07-26T12:57:16.040Z,5.1
2022-07-26T12:59:30.360Z,3.3
2022-07-26T13:01:44.833Z,4.5
2022-07-26T13:04:01.727Z,3.9
2022-07-26T13:06:16.694Z,3.8
2022-07-26T13:08:31.152Z,4.6
2022-07-26T13:10:46.459Z,3.4
2022-07-26T13:13:00.816Z,5
2022-07-26T13:15:15.353Z,3.2
2022-07-26T13:17:30.124Z,3.5
2022-07-26T13:19:45.422Z,5.4
2022-07-26T13:22:00.189Z,3.7
2022-07-26T13:24:15.826Z,4.1
2022-07-26T13:26:32.041Z,2.3
2022-07-26T13:28:49.542Z,2.4
2022-07-26T13:31:03.557Z,1.9
2022-07-26T13:33:18.196Z,4.3
2022-07-26T13:35:32.624Z,2.1
2022-07-26T13:37:47.169Z,2.8
2022-07-26T13:40:01.820Z,3.3
2022-07-26T13:42:16.034Z,2.7
2022-07-26T13:44:31.249Z,2
2022-07-26T13:46:46.906Z,3.5
2022-07-26T13:49:02.033Z,2.5
2022-07-26T13:51:16.355Z,1.1
2022-07-26T13:53:32.965Z,2.4
2022-07-26T13:55:47.716Z,2.9
2022-07-26T13:58:05.168Z,4.5
2022-07-26T14:00:18.271Z,4.3
2022-07-26T14:02:32.633Z,5
2022-07-26T14:04:47.353Z,4.1
2022-07-26T14:07:02.475Z,7.1
2022-07-26T14:09:16.935Z,4
2022-07-26T14:11:31.436Z,4.1
2022-07-26T14:13:47.445Z,4.4
2022-07-26T14:16:01.987Z,4.6
2022-07-26T14:18:17.492Z,4.4
2022-07-26T14:20:31.823Z,6.4
2022-07-26T14:22:46.249Z,3.7
2022-07-26T14:25:01.796Z,2.9
2022-07-26T14:27:16.322Z,4.1
2022-07-26T14:29:30.712Z,2.6
2022-07-26T14:31:45.197Z,4.6
2022-07-26T14:33:59.795Z,7.5
2022-07-26T14:36:14.276Z,5.9
2022-07-26T14:38:30.190Z,3.7
2022-07-26T14:40:44.404Z,5.8
2022-07-26T14:42:58.789Z,4.9
2022-07-26T14:45:13.598Z,5.8
2022-07-26T14:47:28.009Z,4.8
2022-07-26T14:49:42.564Z,3.3
2022-07-26T14:51:56.999Z,5
2022-07-26T14:54:12.504Z,3.6
2022-07-26T14:56:26.326Z,3.5
2022-07-26T14:58:41.216Z,4.3
2022-07-26T15:00:55.641Z,4.2
2022-07-26T15:03:10.211Z,5.2
2022-07-26T15:05:24.859Z,4
2022-07-26T15:07:39.739Z,5.2
2022-07-26T15:09:54.083Z,4.3
2022-07-26T15:12:08.617Z,3.8
2022-07-26T15:14:24.594Z,4.2
2022-07-26T15:16:39.226Z,5.2
2022-07-26T15:18:53.991Z,4.3
2022-07-26T15:21:09.783Z,4.7
2022-07-26T15:23:24.158Z,3.7
2022-07-26T15:25:38.638Z,4.5
2022-07-26T15:27:53.037Z,3.9
2022-07-26T15:30:13.110Z,6
2022-07-26T15:32:24.892Z,3.8
2022-07-26T15:34:39.412Z,5
2022-07-26T15:36:56.184Z,2.5
2022-07-26T15:39:16.958Z,3.5
2022-07-26T15:41:30.317Z,2.7
2022-07-26T15:43:48.612Z,2.2
2022-07-26T15:46:04.040Z,3.2
2022-07-26T15:48:22.663Z,2.4
2022-07-26T15:50:36.692Z,3.4
2022-07-26T15:52:54.881Z,3.2
2022-07-26T15:55:09.441Z,3.1
2022-07-26T15:57:25.032Z,2.3
2022-07-26T15:59:39.799Z,2.1
2022-07-26T16:01:54.783Z,3.2
2022-07-26T16:04:10.617Z,2.3
2022-07-26T16:06:24.581Z,2.4
2022-07-26T16:08:58.809Z,3.6
2022-07-26T16:10:57.284Z,3.2
2022-07-26T16:13:14.976Z,2.5
2022-07-26T16:15:30.599Z,3.9
2022-07-26T16:17:45.255Z,2.8
2022-07-26T16:20:00.606Z,1.4
2022-07-26T16:22:15.048Z,4.1
2022-07-26T16:24:29.628Z,1.6
2022-07-26T16:26:44.119Z,2.1
2022-07-26T16:29:01.461Z,2.3
2022-07-26T16:31:16.245Z,3
2022-07-26T16:33:33.926Z,3.3
2022-07-26T16:35:48.407Z,2.9
2022-07-26T16:38:03.241Z,4
2022-07-26T16:40:18.545Z,1.6
2022-07-26T16:42:34.209Z,3.4
2022-07-26T16:44:48.650Z,2.1
2022-07-26T16:47:03.174Z,2.1
2022-07-26T16:49:17.845Z,5.7
2022-07-26T16:51:33.259Z,1.6
2022-07-26T16:53:47.704Z,2
2022-07-26T16:56:03.029Z,1.7
2022-07-26T16:58:18.089Z,3.5
2022-07-26T17:00:33.862Z,3.4
2022-07-26T17:02:50.968Z,1.8
2022-07-26T17:05:06.798Z,2
2022-07-26T17:07:25.324Z,1.5
2022-07-26T17:09:39.968Z,1.7
2022-07-26T17:11:54.418Z,1
2022-07-26T17:14:10.003Z,1.3
2022-07-26T17:16:25.437Z,1.6
2022-07-26T17:18:40.675Z,1.8
2022-07-26T17:20:59.801Z,1.3
2022-07-26T17:23:14.434Z,1.3
2022-07-26T17:25:30.747Z,2.1
2022-07-26T17:27:45.948Z,1.1
2022-07-26T17:30:06.736Z,1.1
2022-07-26T17:32:21.215Z,1
2022-07-26T17:34:40.418Z,1.7
2022-07-26T17:36:56.036Z,1.3
2022-07-26T17:39:12.678Z,0.9
2022-07-26T17:41:32.945Z,2.3
2022-07-26T17:43:45.767Z,1.9
2022-07-26T17:46:00.256Z,1
2022-07-26T17:48:14.929Z,0.9
2022-07-26T17:50:38.706Z,2.2
2022-07-26T17:52:47.552Z,1.8
2022-07-26T17:55:01.959Z,1.6
2022-07-26T17:57:18.346Z,1.6
2022-07-26T17:59:32.750Z,1.7
2022-07-26T18:01:50.362Z,2.1
2022-07-26T18:04:05.444Z,2.3
2022-07-26T18:06:20.740Z,1.7
2022-07-26T18:08:38.132Z,2.6
2022-07-26T18:10:52.699Z,1.7
2022-07-26T18:13:07.160Z,1.3
2022-07-26T18:15:22.079Z,1.6
2022-07-26T18:17:36.605Z,3.3
2022-07-26T18:19:51.230Z,2.5
2022-07-26T18:22:06.740Z,2.5
2022-07-26T18:24:21.292Z,1.9
2022-07-26T18:26:35.914Z,2.6
2022-07-26T18:28:50.412Z,3
2022-07-26T18:31:05.001Z,1.6
2022-07-26T18:33:20.360Z,1.1
2022-07-26T18:35:34.753Z,2.3
2022-07-26T18:37:49.765Z,4.4
2022-07-26T18:40:04.060Z,3.4
2022-07-26T18:42:19.077Z,1.6
2022-07-26T18:44:33.814Z,2.6
2022-07-26T18:46:48.205Z,2.8
2022-07-26T18:49:02.654Z,3
2022-07-26T18:51:18.002Z,1.7
2022-07-26T18:53:33.498Z,2.6
2022-07-26T18:55:47.461Z,3.8
2022-07-26T18:58:06.653Z,5.4
2022-07-26T19:00:19.588Z,3.7
2022-07-26T19:02:34.677Z,4
2022-07-26T19:04:49.131Z,4.9
2022-07-26T19:07:03.596Z,4
2022-07-26T19:09:19.264Z,2.1
2022-07-26T19:11:36.352Z,4
2022-07-26T19:13:50.705Z,3.3
2022-07-26T19:16:05.753Z,3.3
2022-07-26T19:18:22.714Z,3.3
2022-07-26T19:20:37.334Z,3.8
2022-07-26T19:22:52.549Z,3.6
2022-07-26T19:25:07.139Z,3.3
2022-07-26T19:27:21.728Z,3.9
2022-07-26T19:29:39.462Z,4.6
2022-07-26T19:31:53.922Z,5
2022-07-26T19:34:08.419Z,5.6
2022-07-26T19:36:25.703Z,4.8
2022-07-26T19:38:39.900Z,4.8
2022-07-26T19:40:54.680Z,6.1
2022-07-26T19:43:09.151Z,5.9
2022-07-26T19:45:23.735Z,4.9
2022-07-26T19:47:38.657Z,4.8
2022-07-26T19:49:53.883Z,6.1
2022-07-26T19:52:11.786Z,6.9
2022-07-26T19:54:25.125Z,4.6
2022-07-26T19:56:39.860Z,3.6
2022-07-26T19:58:55.237Z,3.9
2022-07-26T20:01:11.459Z,4
2022-07-26T20:03:25.334Z,4.8
2022-07-26T20:05:39.889Z,3.6
2022-07-26T20:07:55.103Z,4.1
2022-07-26T20:10:09.696Z,6
2022-07-26T20:12:26.402Z,5
2022-07-26T20:14:41.365Z,6.1
2022-07-26T20:16:57.519Z,3.8
2022-07-26T20:19:13.378Z,4.8
2022-07-26T20:21:27.501Z,6.2
2022-07-26T20:23:42.228Z,5.4
2022-07-26T20:25:56.694Z,4.8
2022-07-26T20:28:11.092Z,6.4
2022-07-26T20:30:26.614Z,5.5
2022-07-26T20:32:41.176Z,6.9
2022-07-26T20:34:55.982Z,7.3
2022-07-26T20:37:11.653Z,6.1
2022-07-26T20:39:26.254Z,5.9
2022-07-26T20:41:41.177Z,4
2022-07-26T20:43:56.948Z,4.2
2022-07-26T20:46:12.120Z,5.6
2022-07-26T20:48:26.805Z,5.3
2022-07-26T20:50:41.533Z,6.7
2022-07-26T20:52:56.136Z,8
2022-07-26T20:55:10.706Z,5.7
2022-07-26T20:57:26.435Z,6.1
2022-07-26T20:59:42.007Z,5.6
2022-07-26T21:01:56.615Z,4.7
2022-07-26T21:04:11.237Z,7.3
2022-07-26T21:06:27.429Z,5.5
2022-07-26T21:08:42.401Z,5
2022-07-26T21:10:56.896Z,4.9
2022-07-26T21:13:11.326Z,7.4
2022-07-26T21:15:26.264Z,5.3
2022-07-26T21:17:40.752Z,5.6
2022-07-26T21:19:56.255Z,6.3
2022-07-26T21:22:10.984Z,7.2
2022-07-26T21:24:25.775Z,6.5
2022-07-26T21:26:41.239Z,7.9
2022-07-26T21:28:55.970Z,7.5
